createdAt,value
2022-10-04T00:01:51.956Z,5.90
2022-10-04T00:04:27.206Z,5.90
2022-10-04T00:07:07.366Z,5.80
2022-10-04T00:09:44.145Z,5.80
2022-10-04T00:12:23.578Z,5.80
2022-10-04T00:14:56.262Z,5.80
2022-10-04T00:17:27.969Z,5.70
2022-10-04T00:19:57.197Z,5.70
2022-10-04T00:22:28.533Z,5.70
2022-10-04T00:25:21.815Z,5.60
2022-10-04T00:28:43.222Z,5.60
2022-10-04T00:31:23.051Z,5.60
2022-10-04T00:33:58.252Z,5.50
2022-10-04T00:36:54.708Z,5.50
2022-10-04T00:39:40.170Z,5.50
2022-10-04T00:42:42.152Z,5.50
2022-10-04T00:45:25.811Z,5.40
2022-10-04T00:48:31.239Z,5.40
2022-10-04T00:51:08.618Z,5.40
2022-10-04T00:53:54.239Z,5.50
2022-10-04T00:56:32.399Z,5.50
2022-10-04T00:59:34.421Z,5.60
2022-10-04T01:02:12.475Z,5.60
2022-10-04T01:04:48.900Z,5.60
2022-10-04T01:07:29.732Z,5.70
2022-10-04T01:10:05.681Z,5.70
2022-10-04T01:12:45.683Z,5.70
2022-10-04T01:15:23.740Z,5.70
2022-10-04T01:18:13.588Z,5.70
2022-10-04T01:20:54.910Z,5.70
2022-10-04T01:23:44.649Z,5.60
2022-10-04T01:26:41.032Z,5.60
2022-10-04T01:29:17.361Z,5.60
2022-10-04T01:31:48.939Z,5.60
2022-10-04T01:34:19.953Z,5.60
2022-10-04T01:36:51.332Z,5.60
2022-10-04T01:39:23.584Z,5.60
2022-10-04T01:42:00.097Z,5.50
2022-10-04T01:44:38.255Z,5.50
2022-10-04T01:47:14.687Z,5.50
2022-10-04T01:49:46.278Z,5.50
2022-10-04T01:52:23.777Z,5.50
2022-10-04T01:55:01.740Z,5.40
2022-10-04T01:57:38.293Z,5.40
2022-10-04T02:00:10.495Z,5.40
2022-10-04T02:02:44.310Z,5.40
2022-10-04T02:05:19.128Z,5.40
2022-10-04T02:07:49.678Z,5.50
2022-10-04T02:10:23.204Z,5.50
2022-10-04T02:12:55.221Z,5.50
2022-10-04T02:15:28.157Z,5.50
2022-10-04T02:17:58.788Z,5.50
2022-10-04T02:20:28.387Z,5.60
2022-10-04T02:23:03.092Z,5.60
2022-10-04T02:25:33.313Z,5.60
2022-10-04T02:28:04.059Z,5.70
2022-10-04T02:30:38.180Z,5.60
2022-10-04T02:33:05.774Z,5.60
2022-10-04T02:35:38.768Z,5.70
2022-10-04T02:38:18.367Z,5.60
2022-10-04T02:40:57.125Z,5.60
2022-10-04T02:43:34.948Z,5.70
2022-10-04T02:46:13.012Z,5.70
2022-10-04T02:48:48.477Z,5.70
2022-10-04T02:51:25.522Z,5.70
2022-10-04T02:54:04.273Z,5.70
2022-10-04T02:56:35.067Z,5.70
2022-10-04T02:59:05.489Z,5.80
2022-10-04T03:01:51.760Z,5.80
2022-10-04T03:04:23.203Z,5.80
2022-10-04T03:06:53.226Z,5.80
2022-10-04T03:09:28.797Z,5.80
2022-10-04T03:12:00.063Z,5.80
2022-10-04T03:14:29.933Z,5.90
2022-10-04T03:17:03.955Z,5.90
2022-10-04T03:19:34.615Z,5.90
2022-10-04T03:22:08.714Z,5.90
2022-10-04T03:24:48.015Z,5.90
2022-10-04T03:27:24.836Z,5.90
2022-10-04T03:29:58.872Z,5.90
2022-10-04T03:32:30.578Z,5.90
2022-10-04T03:35:03.126Z,5.80
2022-10-04T03:37:36.515Z,5.80
2022-10-04T03:40:10.647Z,5.80
2022-10-04T03:42:41.504Z,5.80
2022-10-04T03:45:16.415Z,5.80
2022-10-04T03:47:48.491Z,5.80
2022-10-04T03:50:22.227Z,5.80
2022-10-04T03:52:55.751Z,5.80
2022-10-04T03:55:31.629Z,5.80
2022-10-04T03:58:02.286Z,5.80
2022-10-04T04:00:30.864Z,5.80
2022-10-04T04:03:03.036Z,5.80
2022-10-04T04:05:38.022Z,5.80
2022-10-04T04:08:14.692Z,5.90
2022-10-04T04:10:48.926Z,5.90
2022-10-04T04:13:26.470Z,5.90
2022-10-04T04:15:57.022Z,5.90
2022-10-04T04:18:30.093Z,5.90
2022-10-04T04:21:03.352Z,5.90
2022-10-04T04:23:35.014Z,6.00
2022-10-04T04:26:19.687Z,6.00
2022-10-04T04:28:53.942Z,6.00
2022-10-04T04:31:26.944Z,6.00
2022-10-04T04:34:00.542Z,6.00
2022-10-04T04:36:32.584Z,6.00
2022-10-04T04:39:32.723Z,6.00
2022-10-04T04:42:03.553Z,6.10
2022-10-04T04:44:34.069Z,6.10
2022-10-04T04:47:02.302Z,6.10
2022-10-04T04:49:32.554Z,6.10
2022-10-04T04:52:01.228Z,6.10
2022-10-04T04:54:29.713Z,6.10
2022-10-04T04:56:58.793Z,6.10
2022-10-04T04:59:29.095Z,6.10
2022-10-04T05:01:58.787Z,6.10
2022-10-04T05:04:27.210Z,6.10
2022-10-04T05:07:05.014Z,6.10
2022-10-04T05:09:35.608Z,6.10
2022-10-04T05:12:11.310Z,6.20
2022-10-04T05:14:46.158Z,6.20
2022-10-04T05:17:22.907Z,6.20
2022-10-04T05:19:53.727Z,6.20
2022-10-04T05:22:26.427Z,6.20
2022-10-04T05:24:58.853Z,6.20
2022-10-04T05:27:32.712Z,6.30
2022-10-04T05:30:09.622Z,6.30
2022-10-04T05:32:55.099Z,6.30
2022-10-04T05:35:24.638Z,6.30
2022-10-04T05:38:07.004Z,6.30
2022-10-04T05:40:46.989Z,6.40
2022-10-04T05:43:27.011Z,6.40
2022-10-04T05:46:23.772Z,6.40
2022-10-04T05:48:57.289Z,6.50
2022-10-04T05:51:29.727Z,6.50
2022-10-04T05:54:02.813Z,6.50
2022-10-04T05:57:21.928Z,6.60
2022-10-04T06:00:13.505Z,6.60
2022-10-04T06:03:14.345Z,6.60
2022-10-04T06:05:57.456Z,6.70
2022-10-04T06:08:44.795Z,6.80
2022-10-04T06:11:36.739Z,6.80
2022-10-04T06:14:58.380Z,6.90
2022-10-04T06:17:56.357Z,7.00
2022-10-04T06:21:17.261Z,7.10
2022-10-04T06:23:54.859Z,7.20
2022-10-04T06:26:28.834Z,7.30
2022-10-04T06:29:07.514Z,7.40
2022-10-04T06:32:24.545Z,7.50
2022-10-04T06:35:34.990Z,7.50
2022-10-04T06:38:44.465Z,7.60
2022-10-04T06:41:45.259Z,7.70
2022-10-04T06:44:38.769Z,7.80
2022-10-04T06:47:27.680Z,7.90
2022-10-04T06:50:04.182Z,8.00
2022-10-04T06:52:58.629Z,8.20
2022-10-04T06:56:04.634Z,8.30
2022-10-04T06:59:04.384Z,8.40
2022-10-04T07:01:34.963Z,8.60
2022-10-04T07:04:18.553Z,8.70
2022-10-04T07:07:16.098Z,8.80
2022-10-04T07:09:47.380Z,8.90
2022-10-04T07:12:19.328Z,9.00
2022-10-04T07:14:54.792Z,9.20
2022-10-04T07:17:33.181Z,9.30
2022-10-04T07:20:03.685Z,9.40
2022-10-04T07:22:42.697Z,9.50
2022-10-04T07:25:22.175Z,9.60
2022-10-04T07:28:12.697Z,9.70
2022-10-04T07:30:48.910Z,9.90
2022-10-04T07:33:24.303Z,10.00
2022-10-04T07:36:02.128Z,10.20
2022-10-04T07:38:35.220Z,10.30
2022-10-04T07:41:11.803Z,10.40
2022-10-04T07:43:52.344Z,10.60
2022-10-04T07:46:40.719Z,10.70
2022-10-04T07:49:16.289Z,10.90
2022-10-04T07:52:06.469Z,11.00
2022-10-04T07:54:44.530Z,11.20
2022-10-04T07:57:23.479Z,11.30
2022-10-04T08:00:04.221Z,11.40
2022-10-04T08:03:01.579Z,11.60
2022-10-04T08:05:38.499Z,11.80
2022-10-04T08:08:30.507Z,11.80
2022-10-04T08:11:21.992Z,12.00
2022-10-04T08:14:04.682Z,12.10
2022-10-04T08:16:39.172Z,12.20
2022-10-04T08:19:33.309Z,12.40
2022-10-04T08:22:10.178Z,12.60
2022-10-04T08:24:53.656Z,12.70
2022-10-04T08:28:07.201Z,12.90
2022-10-04T08:30:56.028Z,13.00
2022-10-04T08:33:55.773Z,13.20
2022-10-04T08:36:46.666Z,13.40
2022-10-04T08:39:37.131Z,13.50
2022-10-04T08:42:53.576Z,13.50
2022-10-04T08:46:10.726Z,13.60
2022-10-04T08:49:25.238Z,13.80
2022-10-04T08:52:37.003Z,13.90
2022-10-04T08:56:11.201Z,14.10
2022-10-04T08:59:18.750Z,14.30
2022-10-04T09:02:27.610Z,14.50
2022-10-04T09:05:35.080Z,14.70
2022-10-04T09:09:09.683Z,14.90
2022-10-04T09:12:03.591Z,15.10
2022-10-04T09:15:19.887Z,15.30
2022-10-04T09:17:58.375Z,15.50
2022-10-04T09:20:49.387Z,15.70
2022-10-04T09:23:53.768Z,15.80
2022-10-04T09:26:25.140Z,15.90
2022-10-04T09:29:50.057Z,16.00
2022-10-04T09:33:00.769Z,16.00
2022-10-04T09:36:06.693Z,16.10
2022-10-04T09:39:18.344Z,16.20
2022-10-04T09:42:33.592Z,16.30
2022-10-04T09:45:53.307Z,16.40
2022-10-04T09:48:42.512Z,16.50
2022-10-04T09:51:53.244Z,16.60
2022-10-04T09:54:52.334Z,16.70
2022-10-04T09:57:33.646Z,16.80
2022-10-04T10:00:25.014Z,16.90
2022-10-04T10:03:48.099Z,17.10
2022-10-04T10:06:50.443Z,17.20
2022-10-04T10:09:50.124Z,17.40
2022-10-04T10:13:00.561Z,17.60
2022-10-04T10:15:44.351Z,17.80
2022-10-04T10:18:28.500Z,17.90
2022-10-04T10:21:28.132Z,18.10
2022-10-04T10:24:58.493Z,18.20
2022-10-04T10:28:03.815Z,18.40
2022-10-04T10:30:56.694Z,18.70
2022-10-04T10:33:57.480Z,18.90
2022-10-04T10:36:58.488Z,19.00
2022-10-04T10:40:24.368Z,19.20
2022-10-04T10:43:20.742Z,19.30
2022-10-04T10:46:13.820Z,19.50
2022-10-04T10:49:25.607Z,19.70
2022-10-04T10:52:37.337Z,19.90
2022-10-04T10:55:54.291Z,20.20
2022-10-04T10:58:57.190Z,20.40
2022-10-04T11:02:05.803Z,20.60
2022-10-04T11:04:58.294Z,20.80
2022-10-04T11:07:51.625Z,20.80
2022-10-04T11:11:16.524Z,20.80
2022-10-04T11:14:36.744Z,20.80
2022-10-04T11:18:02.547Z,20.80
2022-10-04T11:21:25.714Z,20.70
2022-10-04T11:24:34.499Z,20.70
2022-10-04T11:27:29.624Z,20.90
2022-10-04T11:30:23.460Z,21.00
2022-10-04T11:33:45.981Z,21.10
2022-10-04T11:37:03.135Z,21.20
2022-10-04T11:39:58.778Z,21.40
2022-10-04T11:42:53.050Z,21.70
2022-10-04T11:45:55.828Z,22.10
2022-10-04T11:48:43.254Z,22.50
2022-10-04T11:51:52.789Z,23.00
2022-10-04T11:55:17.657Z,23.40
2022-10-04T11:57:55.558Z,23.70
2022-10-04T12:00:26.860Z,23.90
2022-10-04T12:03:43.933Z,24.40
2022-10-04T12:06:34.905Z,24.80
2022-10-04T12:09:17.960Z,25.20
2022-10-04T12:12:39.307Z,25.60
2022-10-04T12:15:49.293Z,26.10
2022-10-04T12:19:08.095Z,26.60
2022-10-04T12:22:02.617Z,26.80
2022-10-04T12:25:09.220Z,27.10
2022-10-04T12:28:18.508Z,27.50
2022-10-04T12:31:16.367Z,27.50
2022-10-04T12:33:57.217Z,27.50
2022-10-04T12:36:42.897Z,27.80
2022-10-04T12:39:32.008Z,28.20
2022-10-04T12:42:21.629Z,28.50
2022-10-04T12:45:39.092Z,28.50
2022-10-04T12:48:27.926Z,28.70
2022-10-04T12:51:10.923Z,29.00
2022-10-04T12:53:50.730Z,29.10
2022-10-04T12:56:43.477Z,29.20
2022-10-04T12:59:31.659Z,29.20
2022-10-04T13:02:21.526Z,29.30
2022-10-04T13:05:00.057Z,29.40
2022-10-04T13:08:17.105Z,29.30
2022-10-04T13:11:20.930Z,29.10
2022-10-04T13:14:20.979Z,28.90
2022-10-04T13:20:16.252Z,29.30
2022-10-04T13:22:57.941Z,29.20
2022-10-04T13:25:53.451Z,29.40
2022-10-04T13:28:31.946Z,29.60
2022-10-04T13:31:06.749Z,29.70
2022-10-04T13:33:47.578Z,29.40
2022-10-04T13:36:26.803Z,29.00
2022-10-04T13:39:35.338Z,28.00
2022-10-04T13:42:51.014Z,27.20
2022-10-04T13:45:58.913Z,26.60
2022-10-04T13:48:56.318Z,25.90
2022-10-04T13:51:48.162Z,25.40
2022-10-04T13:54:51.969Z,25.00
2022-10-04T13:57:30.882Z,24.50
2022-10-04T14:00:06.196Z,24.00
2022-10-04T14:03:20.217Z,23.60
2022-10-04T14:06:50.204Z,23.30
2022-10-04T14:09:54.151Z,23.10
2022-10-04T14:13:16.613Z,23.00
2022-10-04T14:16:06.161Z,23.10
2022-10-04T14:19:46.112Z,22.90
2022-10-04T14:23:02.244Z,22.80
2022-10-04T14:26:26.306Z,22.80
2022-10-04T14:29:57.034Z,22.80
2022-10-04T14:33:04.951Z,23.00
2022-10-04T14:35:42.786Z,23.70
2022-10-04T14:39:01.768Z,24.70
2022-10-04T14:42:01.501Z,25.70
2022-10-04T14:45:11.604Z,26.70
2022-10-04T14:48:24.165Z,27.50
2022-10-04T14:51:19.351Z,28.30
2022-10-04T14:54:02.140Z,28.80
2022-10-04T14:57:02.518Z,29.00
2022-10-04T15:00:23.622Z,29.40
2022-10-04T15:03:25.531Z,30.00
2022-10-04T15:06:13.127Z,30.50
2022-10-04T15:09:18.646Z,30.90
2022-10-04T15:12:27.165Z,31.30
2022-10-04T15:15:11.970Z,31.60
2022-10-04T15:17:56.179Z,31.80
2022-10-04T15:20:29.454Z,31.90
2022-10-04T15:23:13.350Z,32.10
2022-10-04T15:25:47.412Z,32.30
2022-10-04T15:29:05.815Z,32.30
2022-10-04T15:31:50.605Z,32.60
2022-10-04T15:34:34.291Z,32.50
2022-10-04T15:37:15.143Z,32.40
2022-10-04T15:40:14.263Z,32.30
2022-10-04T15:43:08.016Z,32.30
2022-10-04T15:46:20.142Z,32.20
2022-10-04T15:49:23.273Z,32.00
2022-10-04T15:52:15.991Z,31.80
2022-10-04T15:55:18.174Z,31.50
2022-10-04T15:58:27.250Z,31.00
2022-10-04T16:01:20.916Z,30.00
2022-10-04T16:04:19.214Z,28.40
2022-10-04T16:06:56.578Z,27.00
2022-10-04T16:09:39.233Z,25.80
2022-10-04T16:12:24.037Z,24.70
2022-10-04T16:15:20.800Z,23.80
2022-10-04T16:18:13.420Z,23.00
2022-10-04T16:21:00.511Z,22.30
2022-10-04T16:23:35.901Z,21.70
2022-10-04T16:26:07.425Z,21.20
2022-10-04T16:29:08.881Z,20.70
2022-10-04T16:31:56.790Z,20.20
2022-10-04T16:34:54.064Z,19.70
2022-10-04T16:37:37.146Z,19.30
2022-10-04T16:40:27.204Z,18.90
2022-10-04T16:43:01.793Z,18.50
2022-10-04T16:45:50.350Z,18.10
2022-10-04T16:48:49.910Z,17.70
2022-10-04T16:51:54.949Z,17.40
2022-10-04T16:55:03.126Z,17.00
2022-10-04T16:57:31.683Z,16.80
2022-10-04T17:00:05.821Z,16.60
2022-10-04T17:03:07.558Z,16.30
2022-10-04T17:06:13.541Z,16.00
2022-10-04T17:08:54.354Z,15.70
2022-10-04T17:11:46.517Z,15.50
2022-10-04T17:14:55.842Z,15.20
2022-10-04T17:17:40.506Z,15.10
2022-10-04T17:20:29.447Z,14.80
2022-10-04T17:23:22.420Z,14.60
2022-10-04T17:26:08.083Z,14.50
2022-10-04T17:28:52.799Z,14.30
2022-10-04T17:31:35.525Z,14.10
2022-10-04T17:34:20.608Z,14.00
2022-10-04T17:36:54.791Z,13.80
2022-10-04T17:39:44.399Z,13.70
2022-10-04T17:42:30.360Z,13.50
2022-10-04T17:45:35.959Z,13.40
2022-10-04T17:48:27.303Z,13.30
2022-10-04T17:51:22.380Z,13.20
2022-10-04T17:54:19.373Z,13.00
2022-10-04T17:56:54.491Z,12.90
2022-10-04T17:59:31.193Z,12.80
2022-10-04T18:02:11.949Z,12.70
2022-10-04T18:04:52.368Z,12.60
2022-10-04T18:07:25.514Z,12.50
2022-10-04T18:09:57.792Z,12.40
2022-10-04T18:12:33.348Z,12.40
2022-10-04T18:15:16.201Z,12.30
2022-10-04T18:17:49.095Z,12.20
2022-10-04T18:20:28.815Z,12.10
2022-10-04T18:23:04.025Z,12.10
2022-10-04T18:25:34.201Z,12.00
2022-10-04T18:28:14.070Z,11.90
2022-10-04T18:31:00.561Z,11.80
2022-10-04T18:33:49.852Z,11.80
2022-10-04T18:36:23.492Z,11.70
2022-10-04T18:39:18.042Z,11.60
2022-10-04T18:41:59.046Z,11.60
2022-10-04T18:44:43.989Z,11.50
2022-10-04T18:47:21.212Z,11.40
2022-10-04T18:49:54.511Z,11.40
2022-10-04T18:52:43.265Z,11.30
2022-10-04T18:55:38.910Z,11.30
2022-10-04T18:58:42.613Z,11.20
2022-10-04T19:01:51.545Z,11.10
2022-10-04T19:04:33.028Z,11.10
2022-10-04T19:07:11.824Z,11.00
2022-10-04T19:10:14.704Z,10.90
2022-10-04T19:12:59.754Z,10.90
2022-10-04T19:15:43.221Z,10.80
2022-10-04T19:18:42.766Z,10.70
2022-10-04T19:21:25.444Z,10.60
2022-10-04T19:24:25.847Z,10.60
2022-10-04T19:27:04.944Z,10.50
2022-10-04T19:29:53.953Z,10.50
2022-10-04T19:32:40.190Z,10.40
2022-10-04T19:35:27.256Z,10.30
2022-10-04T19:38:12.666Z,10.30
2022-10-04T19:40:52.228Z,10.20
2022-10-04T19:43:32.522Z,10.20
2022-10-04T19:46:14.557Z,10.10
2022-10-04T19:48:51.160Z,10.10
2022-10-04T19:51:33.831Z,10.00
2022-10-04T19:54:15.710Z,10.00
2022-10-04T19:56:49.450Z,9.90
2022-10-04T19:59:26.601Z,9.90
2022-10-04T20:01:55.019Z,9.90
2022-10-04T20:04:39.396Z,9.80
2022-10-04T20:07:23.652Z,9.80
2022-10-04T20:09:56.135Z,9.80
2022-10-04T20:12:38.094Z,9.70
2022-10-04T20:15:43.207Z,9.60
2022-10-04T20:19:09.684Z,9.60
2022-10-04T20:21:38.151Z,9.50
2022-10-04T20:24:19.090Z,9.50
2022-10-04T20:26:54.502Z,9.50
2022-10-04T20:30:04.335Z,9.40
2022-10-04T20:32:56.126Z,9.40
2022-10-04T20:36:05.815Z,9.30
2022-10-04T20:39:01.187Z,9.30
2022-10-04T20:42:26.959Z,9.30
2022-10-04T20:44:58.131Z,9.20
2022-10-04T20:47:46.931Z,9.20
2022-10-04T20:50:40.774Z,9.20
2022-10-04T20:53:21.377Z,9.10
2022-10-04T20:55:52.398Z,9.10
2022-10-04T20:58:32.456Z,9.10
2022-10-04T21:01:14.062Z,9.00
2022-10-04T21:03:42.499Z,9.00
2022-10-04T21:06:12.756Z,9.00
2022-10-04T21:08:42.029Z,9.00
2022-10-04T21:11:20.943Z,8.90
2022-10-04T21:13:59.451Z,8.90
2022-10-04T21:16:46.766Z,8.90
2022-10-04T21:19:49.489Z,8.80
2022-10-04T21:22:38.283Z,8.80
2022-10-04T21:25:40.830Z,8.80
2022-10-04T21:28:31.125Z,8.80
2022-10-04T21:31:04.351Z,8.70
2022-10-04T21:33:34.400Z,8.70
2022-10-04T21:36:02.721Z,8.70
2022-10-04T21:38:31.022Z,8.60
2022-10-04T21:40:59.230Z,8.60
2022-10-04T21:43:27.792Z,8.60
2022-10-04T21:45:56.591Z,8.50
2022-10-04T21:48:27.404Z,8.50
2022-10-04T21:50:56.443Z,8.50
2022-10-04T21:53:24.867Z,8.50
2022-10-04T21:55:52.981Z,8.40
2022-10-04T21:58:21.193Z,8.40
2022-10-04T22:00:49.552Z,8.40
2022-10-04T22:03:17.726Z,8.40
2022-10-04T22:05:47.181Z,8.40
2022-10-04T22:08:15.426Z,8.30
2022-10-04T22:10:44.963Z,8.30
2022-10-04T22:13:13.291Z,8.20
2022-10-04T22:15:41.777Z,8.20
2022-10-04T22:18:09.880Z,8.20
2022-10-04T22:20:38.832Z,8.20
2022-10-04T22:23:17.440Z,8.20
2022-10-04T22:25:45.637Z,8.10
2022-10-04T22:28:22.830Z,8.10
2022-10-04T22:30:52.122Z,8.10
2022-10-04T22:33:34.007Z,8.00
2022-10-04T22:36:16.526Z,8.00
2022-10-04T22:38:50.713Z,8.00
2022-10-04T22:41:20.762Z,8.00
2022-10-04T22:43:50.697Z,7.90
2022-10-04T22:46:21.209Z,7.90
2022-10-04T22:48:50.850Z,7.90
2022-10-04T22:51:18.930Z,7.90
2022-10-04T22:53:49.428Z,7.90
2022-10-04T22:56:17.630Z,7.80
2022-10-04T22:58:45.797Z,7.80
2022-10-04T23:01:17.694Z,7.80
2022-10-04T23:03:48.645Z,7.70
2022-10-04T23:06:17.160Z,7.70
2022-10-04T23:08:46.410Z,7.70
2022-10-04T23:11:16.066Z,7.70
2022-10-04T23:13:44.112Z,7.60
2022-10-04T23:16:18.221Z,7.60
2022-10-04T23:18:46.421Z,7.60
2022-10-04T23:21:24.463Z,7.60
2022-10-04T23:23:54.067Z,7.60
2022-10-04T23:26:27.827Z,7.60
2022-10-04T23:28:55.941Z,7.60
2022-10-04T23:31:27.314Z,7.60
2022-10-04T23:33:58.050Z,7.60
2022-10-04T23:36:26.461Z,7.60
2022-10-04T23:39:01.331Z,7.50
2022-10-04T23:41:30.900Z,7.50
2022-10-04T23:43:58.981Z,7.50
2022-10-04T23:46:27.148Z,7.50
2022-10-04T23:48:55.330Z,7.50
2022-10-04T23:51:23.487Z,7.50
2022-10-04T23:53:51.760Z,7.50
2022-10-04T23:56:24.156Z,7.40
2022-10-04T23:58:58.965Z,7.40
